createdAt,value
2019-03-06T06:57:13.438Z,9.50
2019-03-06T07:00:25.210Z,9.50
2019-03-06T07:03:50.385Z,9.60
2019-03-06T07:06:27.315Z,9.60
2019-03-06T07:09:10.311Z,9.70
2019-03-06T07:11:53.521Z,9.70
2019-03-06T07:14:27.262Z,9.70
2019-03-06T07:17:21.407Z,9.70
2019-03-06T07:19:58.088Z,9.70
2019-03-06T07:22:45.590Z,9.80
2019-03-06T07:25:30.277Z,9.80
2019-03-06T07:28:05.802Z,9.90
2019-03-06T07:30:34.254Z,9.90
2019-03-06T07:33:25.306Z,9.90
2019-03-06T07:36:08.395Z,9.90
2019-03-06T07:38:37.926Z,9.90
2019-03-06T07:41:25.036Z,9.90
2019-03-06T07:44:05.215Z,9.90
2019-03-06T07:47:10.696Z,9.90
2019-03-06T07:49:45.415Z,9.90
2019-03-06T07:52:37.882Z,10.00
2019-03-06T07:55:15.444Z,10.00
2019-03-06T07:58:12.964Z,10.00
2019-03-06T08:00:42.430Z,10.00
2019-03-06T08:03:12.989Z,10.00
2019-03-06T08:05:42.468Z,10.00
2019-03-06T08:08:11.855Z,10.10
2019-03-06T08:10:41.654Z,10.10
2019-03-06T08:13:18.846Z,10.10
2019-03-06T08:15:52.233Z,10.10
2019-03-06T08:18:35.051Z,10.20
2019-03-06T08:21:13.738Z,10.20
2019-03-06T08:23:44.854Z,10.30
2019-03-06T08:26:19.598Z,10.30
2019-03-06T08:28:55.294Z,10.30
2019-03-06T08:31:29.605Z,10.30
2019-03-06T08:34:01.548Z,10.30
2019-03-06T08:36:31.879Z,10.40
2019-03-06T08:39:01.467Z,10.40
2019-03-06T08:41:33.918Z,10.40
2019-03-06T08:44:03.526Z,10.40
2019-03-06T08:46:40.362Z,10.50
2019-03-06T08:49:27.380Z,10.50
2019-03-06T08:51:58.357Z,10.50
2019-03-06T08:54:32.181Z,10.50
2019-03-06T08:57:03.150Z,10.60
2019-03-06T08:59:34.389Z,10.70
2019-03-06T09:02:15.097Z,10.70
2019-03-06T09:04:42.127Z,10.70
2019-03-06T09:07:18.889Z,10.80
2019-03-06T09:09:50.657Z,10.80
2019-03-06T09:12:37.687Z,10.90
2019-03-06T09:15:15.953Z,10.90
2019-03-06T09:17:47.075Z,10.90
2019-03-06T09:23:33.859Z,11.00
2019-03-06T09:26:16.265Z,11.10
2019-03-06T09:31:58.071Z,11.10
2019-03-06T09:34:33.806Z,11.10
2019-03-06T09:37:10.012Z,11.20
2019-03-06T09:39:43.724Z,11.20
2019-03-06T09:42:32.769Z,11.30
2019-03-06T09:45:06.298Z,11.30
2019-03-06T09:47:39.991Z,11.40
2019-03-06T09:50:17.563Z,11.50
2019-03-06T09:53:00.355Z,11.60
2019-03-06T09:55:43.777Z,11.60
2019-03-06T09:58:17.718Z,11.70
2019-03-06T10:01:04.912Z,11.80
2019-03-06T10:12:05.444Z,12.00
2019-03-06T10:14:39.620Z,12.10
2019-03-06T10:17:11.668Z,12.20
2019-03-06T10:19:46.957Z,12.40
2019-03-06T10:22:16.210Z,12.50
2019-03-06T10:24:47.379Z,12.60
2019-03-06T10:27:16.946Z,12.60
2019-03-06T10:29:46.493Z,12.70
2019-03-06T10:32:16.064Z,12.70
2019-03-06T10:34:46.595Z,12.80
2019-03-06T10:37:17.941Z,12.70
2019-03-06T10:39:47.353Z,12.80
2019-03-06T10:42:17.358Z,12.80
2019-03-06T10:44:49.269Z,12.70
2019-03-06T10:47:18.932Z,12.70
2019-03-06T10:49:48.224Z,12.80
2019-03-06T10:52:17.715Z,12.80
2019-03-06T10:54:48.827Z,12.90
2019-03-06T10:57:18.415Z,13.00
2019-03-06T10:59:47.918Z,13.10
2019-03-06T11:02:18.692Z,13.30
2019-03-06T11:04:50.266Z,13.20
2019-03-06T11:07:19.833Z,13.30
2019-03-06T11:09:49.466Z,13.20
2019-03-06T11:12:28.580Z,13.30
2019-03-06T11:15:00.323Z,13.20
2019-03-06T11:17:34.314Z,13.30
2019-03-06T11:20:04.091Z,13.30
2019-03-06T12:34:30.323Z,12.80
2019-03-06T12:37:01.630Z,12.80
2019-03-06T12:39:31.123Z,12.80
2019-03-06T12:42:01.775Z,12.90
2019-03-06T12:44:31.379Z,12.90
2019-03-06T12:47:00.995Z,12.90
2019-03-06T12:49:30.559Z,12.90
2019-03-06T12:52:00.740Z,12.90
2019-03-06T12:54:30.281Z,12.90
2019-03-06T13:16:34.944Z,12.90
2019-03-06T13:19:04.613Z,12.90
2019-03-06T13:21:34.427Z,12.90
2019-03-06T13:24:04.064Z,12.90
2019-03-06T13:26:34.590Z,12.90
2019-03-06T13:29:04.312Z,12.90
2019-03-06T13:31:34.204Z,12.90
2019-03-06T13:34:23.560Z,12.90
2019-03-06T13:36:53.284Z,12.90
2019-03-06T13:39:23.064Z,12.90
2019-03-06T13:55:32.070Z,13.00
2019-03-06T13:58:02.547Z,13.00
2019-03-06T14:00:32.115Z,13.00
2019-03-06T14:03:01.779Z,13.00
2019-03-06T14:05:31.381Z,13.00
2019-03-06T14:24:49.854Z,13.00
2019-03-06T15:14:36.233Z,12.90
2019-03-06T15:17:05.705Z,12.90
2019-03-06T15:19:39.697Z,12.90
2019-03-06T15:25:33.892Z,12.90
2019-03-06T15:28:22.860Z,12.90
2019-03-06T15:31:02.730Z,12.80
2019-03-06T15:33:26.546Z,12.90
2019-03-06T15:35:59.135Z,12.90
2019-03-06T15:38:49.863Z,12.90
2019-03-06T15:41:29.762Z,12.90
2019-03-06T15:44:05.569Z,12.90
2019-03-06T15:46:36.268Z,12.80
2019-03-06T15:49:43.503Z,12.80
2019-03-06T15:52:18.368Z,12.80
2019-03-06T15:54:52.706Z,12.80
2019-03-06T15:57:49.186Z,12.80
2019-03-06T16:00:04.453Z,12.80
2019-03-06T16:02:43.894Z,12.80
2019-03-06T16:05:20.623Z,12.80
2019-03-06T16:08:05.521Z,12.70
2019-03-06T16:10:42.102Z,12.70
2019-03-06T16:13:56.534Z,12.70
2019-03-06T16:16:28.303Z,12.60
2019-03-06T16:21:54.269Z,12.50
2019-03-06T16:24:23.905Z,12.40
2019-03-06T16:26:58.063Z,12.40
2019-03-06T16:29:27.438Z,12.40
2019-03-06T16:31:57.778Z,12.30
2019-03-06T16:34:27.349Z,12.30
2019-03-06T16:37:02.028Z,12.20
2019-03-06T16:39:44.081Z,12.20
2019-03-06T16:42:19.111Z,12.10
2019-03-06T16:44:48.871Z,12.00
2019-03-06T16:47:21.033Z,12.00
2019-03-06T16:49:50.691Z,12.00
2019-03-06T16:52:21.466Z,11.90
2019-03-06T16:54:50.942Z,11.90
2019-03-06T16:57:20.488Z,12.00
2019-03-06T16:59:49.759Z,11.90
2019-03-06T20:27:44.515Z,11.60
2019-03-06T20:30:24.927Z,11.60
2019-03-06T20:32:54.527Z,11.60
2019-03-06T20:35:27.039Z,11.60
2019-03-06T20:37:56.890Z,11.60
2019-03-06T20:40:26.506Z,11.50
2019-03-06T20:42:56.132Z,11.60
2019-03-06T20:45:26.986Z,11.60
2019-03-06T20:47:57.202Z,11.50
2019-03-06T20:50:26.840Z,11.50
2019-03-06T20:52:56.698Z,11.50
2019-03-06T20:55:29.381Z,11.50
2019-03-06T23:09:33.247Z,11.60
2019-03-06T23:30:12.291Z,11.60
2019-03-06T23:36:17.505Z,11.60
2019-03-06T23:39:12.804Z,11.60
2019-03-06T23:48:14.967Z,11.60
